Bridlington, United Kingdom
Current Conditions -  °F | °C
As of 11:50 PM on Monday 24 Nov 2014 (Local Time) from EGXV Reporting Station
Haze Haze  
Wind Chill: 32°   Ceiling: 18000
Heat Index: 32°   Visibility: 1.8mi
Dew Point: 32°   Wind: 2mph
Humidity: 100%   Direction: 200°SSW
Pressure: 30.3"   Gusts: NA
Location:  54.08°N, 0.19°W
Report Text: EGXV 242350Z AUTO 20002KT 2900 HZ OVC180/// 00/M00 Q1026
Loading
Personal Weather Stations






























Interactive Weather Map New forecast layout! Learn more

10-Day Weather Forecast

Advertisements
Track Severe Weather on mobile